map of RGS home
RGS - Airport
Location
City:  Burgos, Castille and León, Spain
Name:Burgos
Old (Alt.):Villafría
ICAO:LEBG
IATA:RGS

Details
Type:Airport (Aerodrome, Airfield)
Latitude:42°21'27"N (42.357381)
Longitude:3°36'49"W (-3.613641)
Elevation:2963 ft (903 m)
Variation:0.46°W (WMM2015v2 magnetic declination)
0.16° annual change
Runways:1
Longest:6890 × 148 ft (2100 × 45 m), paved

Time
Time Zone:UTC+1 (DST+2)
Local Time:

Weather
METAR:LEBG 041400Z 22008KT CAVOK 04/M01 Q1028

Related Locations
Nearby:
Farthest:NZFT: 12351 mi / 19876 km
Flat Point, WGN, NZ

Find:

   beyond  
but within

Other Information
Maps:
NOTAMs:
Links:
Sources:

  
  • flag of Spain
  • flag of Castille and León
  

Sectional Chart

Flight Planning
at skyvector.com

Satellite Image

Google Maps Satellite view

 

Copyright © 2004-2019 Karl L. Swartz. All rights reserved.
The Great Circle Mapper name and logo are trademarks of the Great Circle Mapper.
All other trademarks mentioned herein belong to their respective owners.
Please see credits for attibutions and further copyright information.

  Follow gcmap on Facebook Follow gcmap on Twitter GCmap on LinkedIn

hCard Microformat

Geo Microformat